< < Back
Terminal Aerodrome Forecast


Current Version              Previous Versions:   1  2  3  4  5  6  7  8  9  

Terminal Aerodrome Forecast

580
FTUS42 KTAE 031000 AAA
TAFVLD
TAF AMD
KVLD 031020Z 0310/0406 00000KT 4SM BR SCT004
      TEMPO 0310/0314 1/4SM FG VV002
     FM031500 13006KT 4SM BR OVC015
     FM032100 19009KT P6SM SCT025 BKN050
     FM040300 18005KT 4SM BR OVC025=

Latest METAR

467
SAUS70 KWBC 031500 RRJ
MTRVLD
METAR KVLD 031453Z 11004KT 10SM CLR 22/18 A3023 RMK AO2 SLP244 T02220178
50006


USA.gov is the U.S. government's official web portal to all federal, state and local government web resources and services.